createdAt,value
2022-09-12T00:00:20.299Z,1.04
2022-09-12T00:01:20.442Z,1.04
2022-09-12T00:02:20.508Z,1.04
2022-09-12T00:03:20.652Z,1.04
2022-09-12T00:04:20.765Z,1.04
2022-09-12T00:05:20.908Z,1.04
2022-09-12T00:06:22.761Z,1.04
2022-09-12T00:07:21.171Z,1.04
2022-09-12T00:08:21.320Z,1.04
2022-09-12T00:09:21.416Z,1.04
2022-09-12T00:10:21.565Z,1.04
2022-09-12T00:11:21.672Z,1.04
2022-09-12T00:12:21.772Z,1.04
2022-09-12T00:13:21.875Z,1.04
2022-09-12T00:14:21.977Z,1.04
2022-09-12T00:15:22.080Z,1.04
2022-09-12T00:16:22.288Z,1.04
2022-09-12T00:17:22.332Z,1.04
2022-09-12T00:18:22.433Z,1.04
2022-09-12T00:19:22.534Z,1.04
2022-09-12T00:20:22.688Z,1.04
2022-09-12T00:21:22.786Z,1.04
2022-09-12T00:22:22.889Z,1.04
2022-09-12T00:23:23.040Z,1.04
2022-09-12T00:24:23.193Z,1.04
2022-09-12T00:25:23.344Z,1.04
2022-09-12T00:26:23.445Z,1.04
2022-09-12T00:27:23.552Z,1.04
2022-09-12T00:28:23.649Z,1.04
2022-09-12T00:29:23.808Z,1.04
2022-09-12T00:30:23.910Z,1.04
2022-09-12T00:31:24.221Z,1.04
2022-09-12T00:32:24.159Z,1.04
2022-09-12T00:33:24.268Z,1.04
2022-09-12T00:34:24.372Z,1.04
2022-09-12T00:35:24.513Z,1.04
2022-09-12T00:36:24.623Z,1.04
2022-09-12T00:37:24.722Z,1.04
2022-09-12T00:38:24.823Z,1.04
2022-09-12T00:39:24.969Z,1.04
2022-09-12T00:40:25.122Z,1.04
2022-09-12T00:41:25.274Z,1.04
2022-09-12T00:42:25.378Z,1.04
2022-09-12T00:43:25.477Z,1.04
2022-09-12T00:44:25.587Z,1.04
2022-09-12T00:45:25.733Z,1.04
2022-09-12T00:46:25.840Z,1.04
2022-09-12T00:47:26.018Z,1.04
2022-09-12T00:48:26.090Z,1.04
2022-09-12T00:49:26.192Z,1.04
2022-09-12T00:50:26.347Z,1.04
2022-09-12T00:51:26.492Z,1.04
2022-09-12T00:52:26.594Z,1.04
2022-09-12T00:53:26.707Z,1.04
2022-09-12T00:54:26.818Z,1.04
2022-09-12T00:55:26.955Z,1.04
2022-09-12T00:56:27.052Z,1.04
2022-09-12T00:57:27.206Z,1.04
2022-09-12T00:58:27.311Z,1.04
2022-09-12T00:59:27.412Z,1.04
2022-09-12T01:00:27.510Z,1.04
2022-09-12T01:01:31.823Z,1.04
2022-09-12T01:02:27.762Z,1.04
2022-09-12T01:03:27.874Z,1.04
2022-09-12T01:04:28.035Z,1.04
2022-09-12T01:05:28.168Z,1.04
2022-09-12T01:06:28.277Z,1.04
2022-09-12T01:07:28.371Z,1.04
2022-09-12T01:08:28.480Z,1.04
2022-09-12T01:09:28.625Z,1.04
2022-09-12T01:10:28.733Z,1.04
2022-09-12T01:11:28.842Z,1.04
2022-09-12T01:12:28.984Z,1.04
2022-09-12T01:13:29.084Z,1.04
2022-09-12T01:14:29.193Z,1.04
2022-09-12T01:15:29.289Z,1.04
2022-09-12T01:16:29.469Z,1.04
2022-09-12T01:17:29.594Z,1.04
2022-09-12T01:18:29.746Z,1.04
2022-09-12T01:19:29.845Z,1.04
2022-09-12T01:20:29.995Z,1.04
2022-09-12T01:21:30.096Z,1.04
2022-09-12T01:22:30.199Z,1.04
2022-09-12T01:23:30.300Z,1.04
2022-09-12T01:24:30.468Z,1.04
2022-09-12T01:25:30.556Z,1.04
2022-09-12T01:26:30.707Z,1.04
2022-09-12T01:27:30.813Z,1.04
2022-09-12T01:28:30.915Z,1.04
2022-09-12T01:29:31.068Z,1.04
2022-09-12T01:30:31.171Z,1.04
2022-09-12T01:31:31.325Z,1.04
2022-09-12T01:32:31.449Z,1.04
2022-09-12T01:33:31.526Z,1.04
2022-09-12T01:34:31.623Z,1.04
2022-09-12T01:35:31.773Z,1.04
2022-09-12T01:36:31.877Z,1.04
2022-09-12T01:37:32.025Z,1.04
2022-09-12T01:38:32.183Z,1.04
2022-09-12T01:39:32.334Z,1.04
2022-09-12T01:40:32.443Z,1.04
2022-09-12T01:41:32.583Z,1.04
2022-09-12T01:42:32.687Z,1.04
2022-09-12T01:43:32.793Z,1.04
2022-09-12T01:44:32.944Z,1.04
2022-09-12T01:45:33.071Z,1.04
2022-09-12T01:46:33.149Z,1.04
2022-09-12T01:47:33.248Z,1.04
2022-09-12T01:48:33.345Z,1.04
2022-09-12T01:49:33.452Z,1.04
2022-09-12T01:50:33.601Z,1.04
2022-09-12T01:51:33.759Z,1.04
2022-09-12T01:52:33.908Z,1.04
2022-09-12T01:53:34.060Z,1.04
2022-09-12T01:54:34.159Z,1.04
2022-09-12T01:55:34.268Z,1.04
2022-09-12T01:56:34.363Z,1.04
2022-09-12T01:57:34.479Z,1.04
2022-09-12T01:58:34.670Z,1.04
2022-09-12T01:59:34.718Z,1.04
2022-09-12T02:00:34.822Z,1.04
2022-09-12T02:01:34.922Z,1.04
2022-09-12T02:02:35.076Z,1.04
2022-09-12T02:03:35.225Z,1.04
2022-09-12T02:04:35.377Z,1.04
2022-09-12T02:05:35.528Z,1.04
2022-09-12T02:06:35.629Z,1.04
2022-09-12T02:07:35.732Z,1.04
2022-09-12T02:08:35.953Z,1.04
2022-09-12T02:09:36.037Z,1.04
2022-09-12T02:10:36.144Z,1.04
2022-09-12T02:11:36.311Z,1.04
2022-09-12T02:12:36.398Z,1.04
2022-09-12T02:13:36.497Z,1.04
2022-09-12T02:14:36.603Z,1.04
2022-09-12T02:15:36.750Z,1.04
2022-09-12T02:16:36.980Z,1.04
2022-09-12T02:17:37.005Z,1.04
2022-09-12T02:18:37.114Z,1.04
2022-09-12T02:19:37.257Z,1.04
2022-09-12T02:20:47.810Z,1.04
2022-09-12T02:21:37.471Z,1.04
2022-09-12T02:22:37.611Z,1.04
2022-09-12T02:23:37.715Z,1.04
2022-09-12T02:24:37.863Z,1.04
2022-09-12T02:25:37.974Z,1.04
2022-09-12T02:26:38.070Z,1.04
2022-09-12T02:27:38.177Z,1.04
2022-09-12T02:28:38.271Z,1.04
2022-09-12T02:29:38.427Z,1.04
2022-09-12T02:30:38.580Z,1.04
2022-09-12T02:31:38.679Z,1.04
2022-09-12T02:32:38.792Z,1.04
2022-09-12T02:33:38.881Z,1.04
2022-09-12T02:34:38.984Z,1.04
2022-09-12T02:35:39.108Z,1.04
2022-09-12T02:36:39.187Z,1.04
2022-09-12T02:37:39.336Z,1.04
2022-09-12T02:38:39.452Z,1.04
2022-09-12T02:39:42.144Z,1.04
2022-09-12T02:40:39.698Z,1.04
2022-09-12T02:41:39.846Z,1.04
2022-09-12T02:42:39.946Z,1.04
2022-09-12T02:43:40.047Z,1.04
2022-09-12T02:44:40.151Z,1.04
2022-09-12T02:45:40.366Z,1.04
2022-09-12T02:46:40.454Z,1.04
2022-09-12T02:47:40.555Z,1.04
2022-09-12T02:48:41.588Z,1.04
2022-09-12T02:49:40.814Z,1.04
2022-09-12T02:50:40.916Z,1.04
2022-09-12T02:51:41.017Z,1.04
2022-09-12T02:52:41.166Z,1.04
2022-09-12T02:53:41.319Z,1.04
2022-09-12T02:54:41.423Z,1.04
2022-09-12T02:55:41.523Z,1.04
2022-09-12T02:56:41.623Z,1.04
2022-09-12T02:57:41.777Z,1.04
2022-09-12T02:58:41.944Z,1.04
2022-09-12T02:59:42.035Z,1.04
2022-09-12T03:00:42.136Z,1.04
2022-09-12T03:01:42.283Z,1.04
2022-09-12T03:02:42.392Z,1.04
2022-09-12T03:03:43.504Z,1.04
2022-09-12T03:04:42.637Z,1.04
2022-09-12T03:05:42.794Z,1.04
2022-09-12T03:06:42.893Z,1.04
2022-09-12T03:07:42.994Z,1.04
2022-09-12T03:08:43.207Z,1.04
2022-09-12T03:09:43.245Z,1.04
2022-09-12T03:10:43.347Z,1.04
2022-09-12T03:11:43.455Z,1.04
2022-09-12T03:12:43.607Z,1.04
2022-09-12T03:13:43.758Z,1.04
2022-09-12T03:14:43.861Z,1.04
2022-09-12T03:15:43.957Z,1.04
2022-09-12T03:16:44.087Z,1.04
2022-09-12T03:17:44.212Z,1.04
2022-09-12T03:18:44.318Z,1.04
2022-09-12T03:19:44.415Z,1.04
2022-09-12T03:20:44.540Z,1.04
2022-09-12T03:21:44.671Z,1.04
2022-09-12T03:22:47.123Z,1.04
2022-09-12T03:23:44.876Z,1.04
2022-09-12T03:24:44.975Z,1.04
2022-09-12T03:25:45.076Z,1.04
2022-09-12T03:26:45.228Z,1.04
2022-09-12T03:27:45.382Z,1.04
2022-09-12T03:28:45.592Z,1.04
2022-09-12T03:29:45.640Z,1.04
2022-09-12T03:30:45.823Z,1.04
2022-09-12T03:31:45.893Z,1.04
2022-09-12T03:32:45.991Z,1.04
2022-09-12T03:33:46.139Z,1.04
2022-09-12T03:34:46.246Z,1.04
2022-09-12T03:35:46.352Z,1.04
2022-09-12T03:36:46.499Z,1.04
2022-09-12T03:37:46.647Z,1.04
2022-09-12T03:38:46.934Z,1.04
2022-09-12T03:39:46.930Z,1.04
2022-09-12T03:40:49.382Z,1.04
2022-09-12T03:41:47.209Z,1.04
2022-09-12T03:42:47.355Z,1.04
2022-09-12T03:43:47.509Z,1.04
2022-09-12T03:44:47.665Z,1.04
2022-09-12T03:45:47.793Z,1.04
2022-09-12T03:46:47.927Z,1.04
2022-09-12T03:47:48.070Z,1.04
2022-09-12T03:48:48.175Z,1.04
2022-09-12T03:49:48.319Z,1.04
2022-09-12T03:50:48.477Z,1.04
2022-09-12T03:51:48.580Z,1.04
2022-09-12T03:52:48.729Z,1.04
2022-09-12T03:53:48.832Z,1.04
2022-09-12T03:54:48.983Z,1.04
2022-09-12T03:55:49.099Z,1.04
2022-09-12T03:56:49.231Z,1.04
2022-09-12T03:57:49.333Z,1.04
2022-09-12T03:58:49.437Z,1.04
2022-09-12T03:59:49.601Z,1.04
2022-09-12T04:00:49.700Z,1.04
2022-09-12T04:01:49.796Z,1.04
2022-09-12T04:02:49.893Z,1.04
2022-09-12T04:03:49.992Z,2
2022-09-12T04:04:50.147Z,2
2022-09-12T04:05:50.300Z,2
2022-09-12T04:06:50.402Z,2
2022-09-12T04:07:50.552Z,3.04
2022-09-12T04:08:50.654Z,3.04
2022-09-12T04:09:50.768Z,4
2022-09-12T04:10:50.907Z,5.04
2022-09-12T04:11:51.065Z,6
2022-09-12T04:12:51.217Z,7.04
2022-09-12T04:13:51.319Z,8
2022-09-12T04:14:51.419Z,9.04
2022-09-12T04:15:51.571Z,11.04
2022-09-12T04:16:51.694Z,14
2022-09-12T04:17:51.772Z,17.04
2022-09-12T04:18:51.877Z,20
2022-09-12T04:19:51.978Z,24
2022-09-12T04:20:52.079Z,28
2022-09-12T04:21:52.181Z,34
2022-09-12T04:22:52.332Z,41.04
2022-09-12T04:23:52.434Z,48
2022-09-12T04:24:52.536Z,55.04
2022-09-12T04:25:52.636Z,64
2022-09-12T04:26:52.738Z,73.04
2022-09-12T04:27:52.890Z,84
2022-09-12T04:28:52.996Z,98
2022-09-12T04:29:53.092Z,113.04
2022-09-12T04:30:53.274Z,131.04
2022-09-12T04:31:53.398Z,153.04
2022-09-12T04:32:53.555Z,172
2022-09-12T04:33:53.706Z,191.04
2022-09-12T04:34:53.804Z,217.12
2022-09-12T04:35:53.909Z,241.12
2022-09-12T04:36:54.007Z,265.12
2022-09-12T04:37:54.157Z,299.04
2022-09-12T04:38:54.264Z,325.12
2022-09-12T04:39:54.390Z,351.04
2022-09-12T04:40:54.520Z,385.28
2022-09-12T04:41:54.620Z,410.24
2022-09-12T04:42:54.718Z,439.04
2022-09-12T04:43:54.867Z,477.12
2022-09-12T04:44:55.025Z,510.08
2022-09-12T04:45:55.154Z,543.04
2022-09-12T04:46:55.225Z,574.08
2022-09-12T04:47:55.329Z,619.2
2022-09-12T04:48:56.964Z,659.2
2022-09-12T04:49:55.526Z,694.4
2022-09-12T04:50:55.629Z,739.2
2022-09-12T04:51:55.743Z,779.52
2022-09-12T04:52:55.884Z,816
2022-09-12T04:53:55.987Z,858.24
2022-09-12T04:54:56.142Z,896
2022-09-12T04:55:56.296Z,931.2
2022-09-12T04:56:56.448Z,974.08
2022-09-12T04:57:56.543Z,1005.44
2022-09-12T04:58:56.695Z,1039.36
2022-09-12T04:59:56.801Z,1089.28
2022-09-12T05:00:56.981Z,1134.08
2022-09-12T05:01:57.154Z,1179.52
2022-09-12T05:02:57.207Z,1225.6
2022-09-12T05:03:57.313Z,1260.16
2022-09-12T05:04:57.459Z,1289.6
2022-09-12T05:05:57.617Z,1408
2022-09-12T05:06:57.716Z,1441.28
2022-09-12T05:07:57.863Z,1478.4
2022-09-12T05:08:57.970Z,1507.84
2022-09-12T05:09:58.076Z,1507.84
2022-09-12T05:10:58.220Z,1446.4
2022-09-12T05:12:05.154Z,1305.6
2022-09-12T05:12:58.477Z,1123.2
2022-09-12T05:13:58.577Z,1048.32
2022-09-12T05:14:58.736Z,1049.6
2022-09-12T05:15:58.833Z,1113.6
2022-09-12T05:16:58.969Z,1209.6
2022-09-12T05:17:59.132Z,1295.36
2022-09-12T05:18:59.234Z,1528.32
2022-09-12T05:19:59.343Z,1665.28
2022-09-12T05:20:59.438Z,1843.2
2022-09-12T05:21:59.540Z,2108.16
2022-09-12T05:22:59.692Z,2314.24
2022-09-12T05:23:59.792Z,2373.12
2022-09-12T05:24:59.893Z,2348.8
2022-09-12T05:26:00.051Z,2323.2
2022-09-12T05:27:00.149Z,2327.04
2022-09-12T05:28:00.296Z,2328.32
2022-09-12T05:29:00.401Z,2318.08
2022-09-12T05:30:00.505Z,2293.76
2022-09-12T05:31:00.702Z,2266.88
2022-09-12T05:32:00.760Z,2219.52
2022-09-12T05:33:00.908Z,2154.24
2022-09-12T05:34:01.013Z,2076.16
2022-09-12T05:35:01.110Z,1999.36
2022-09-12T05:36:01.218Z,1999.36
2022-09-12T05:37:01.314Z,2035.2
2022-09-12T05:38:01.422Z,2074.88
2022-09-12T05:39:01.522Z,2035.2
2022-09-12T05:40:01.659Z,1957.12
2022-09-12T05:41:01.774Z,1853.44
2022-09-12T05:42:01.880Z,1745.92
2022-09-12T05:43:01.988Z,1724.16
2022-09-12T05:44:02.133Z,1765.12
2022-09-12T05:45:02.280Z,1888
2022-09-12T05:46:02.477Z,1994.24
2022-09-12T05:47:02.583Z,2073.6
2022-09-12T05:48:02.684Z,2236.16
2022-09-12T05:49:02.793Z,2369.28
2022-09-12T05:50:02.889Z,2485.76
2022-09-12T05:51:02.990Z,2754.56
2022-09-12T05:52:03.092Z,3156.48
2022-09-12T05:53:03.241Z,3640.32
2022-09-12T05:54:03.377Z,4172.8
2022-09-12T05:55:03.502Z,4544
2022-09-12T05:56:03.616Z,4912.64
2022-09-12T05:57:03.708Z,5273.6
2022-09-12T05:58:03.806Z,5232.64
2022-09-12T05:59:03.916Z,5081.6
2022-09-12T06:00:04.065Z,4958.72
2022-09-12T06:01:04.248Z,4979.2
2022-09-12T06:02:04.348Z,5038.08
2022-09-12T06:03:04.413Z,5268.48
2022-09-12T06:04:04.569Z,5867.52
2022-09-12T06:05:04.725Z,6538.24
2022-09-12T06:06:04.827Z,7301.12
2022-09-12T06:07:04.975Z,7767.04
2022-09-12T06:08:05.076Z,8033.28
2022-09-12T06:09:05.175Z,8130.56
2022-09-12T06:10:05.280Z,7925.76
2022-09-12T06:11:05.444Z,8079.36
2022-09-12T06:12:05.532Z,8458.24
2022-09-12T06:13:05.690Z,8570.88
2022-09-12T06:14:05.784Z,8591.359
2022-09-12T06:15:05.937Z,8995.84
2022-09-12T06:16:06.038Z,9574.399
2022-09-12T06:17:06.141Z,10009.6
2022-09-12T06:18:06.250Z,9743.359
2022-09-12T06:19:06.404Z,8960
2022-09-12T06:20:06.492Z,8412.16
2022-09-12T06:21:06.646Z,7884.8
2022-09-12T06:22:06.798Z,7111.68
2022-09-12T06:23:06.950Z,6568.96
2022-09-12T06:24:07.051Z,5995.52
2022-09-12T06:25:07.160Z,5463.04
2022-09-12T06:26:07.306Z,5217.28
2022-09-12T06:27:07.465Z,5002.24
2022-09-12T06:28:07.572Z,4741.12
2022-09-12T06:29:07.708Z,4436.48
2022-09-12T06:30:07.830Z,4362.24
2022-09-12T06:31:08.001Z,4454.4
2022-09-12T06:32:08.165Z,4769.28
2022-09-12T06:33:08.274Z,5148.16
2022-09-12T06:34:08.522Z,5498.88
2022-09-12T06:35:08.862Z,5867.52
2022-09-12T06:36:11.629Z,6108.16
2022-09-12T06:37:09.077Z,6169.6
2022-09-12T06:38:09.226Z,6021.12
2022-09-12T06:39:09.335Z,5770.24
2022-09-12T06:40:09.476Z,5544.96
2022-09-12T06:41:09.537Z,5386.24
2022-09-12T06:42:09.633Z,5230.08
2022-09-12T06:43:09.787Z,5073.92
2022-09-12T06:44:09.945Z,4864
2022-09-12T06:45:10.092Z,4610.56
2022-09-12T06:46:10.268Z,4531.2
2022-09-12T06:47:10.346Z,4528.64
2022-09-12T06:48:10.446Z,4674.56
2022-09-12T06:49:10.551Z,4771.84
2022-09-12T06:50:10.643Z,4800
2022-09-12T06:51:10.804Z,4833.28
2022-09-12T06:52:10.902Z,4846.08
2022-09-12T06:53:11.002Z,4874.24
2022-09-12T06:54:11.107Z,5053.44
2022-09-12T06:55:11.264Z,5437.44
2022-09-12T06:56:11.359Z,5934.08
2022-09-12T06:57:11.511Z,6492.16
2022-09-12T06:58:11.663Z,7214.08
2022-09-12T06:59:11.767Z,8012.8
2022-09-12T07:00:11.920Z,8857.6
2022-09-12T07:01:12.163Z,9748.479
2022-09-12T07:02:12.157Z,10352.64
2022-09-12T07:03:12.223Z,10905.6
2022-09-12T07:04:12.373Z,11427.84
2022-09-12T07:05:12.478Z,11683.84
2022-09-12T07:06:12.577Z,11765.76
2022-09-12T07:07:12.687Z,11632.64
2022-09-12T07:08:12.784Z,11560.96
2022-09-12T07:09:12.890Z,11499.52
2022-09-12T07:10:12.989Z,11827.2
2022-09-12T07:11:13.099Z,12595.2
2022-09-12T07:12:13.193Z,12093.439
2022-09-12T07:13:13.303Z,11909.12
2022-09-12T07:14:13.398Z,11438.08
2022-09-12T07:15:13.503Z,11663.359
2022-09-12T07:16:17.396Z,11857.92
2022-09-12T07:17:13.799Z,12001.279
2022-09-12T07:18:13.901Z,12656.64
2022-09-12T07:19:14.050Z,13608.96
2022-09-12T07:20:14.154Z,14940.159
2022-09-12T07:21:14.306Z,15124.479
2022-09-12T07:22:14.407Z,13373.439
2022-09-12T07:23:14.512Z,12974.08
2022-09-12T07:24:14.607Z,12257.279
2022-09-12T07:25:14.713Z,13066.239
2022-09-12T07:26:14.814Z,11970.56
2022-09-12T07:27:14.974Z,10997.76
2022-09-12T07:28:15.067Z,9825.279
2022-09-12T07:29:36.779Z,9415.68
2022-09-12T07:30:15.373Z,10112
2022-09-12T07:31:15.541Z,10844.16
2022-09-12T07:32:15.575Z,9697.279
2022-09-12T07:33:15.678Z,10987.52
2022-09-12T07:34:15.829Z,10659.84
2022-09-12T07:35:15.985Z,10895.359
2022-09-12T07:36:16.086Z,10762.24
2022-09-12T07:37:16.243Z,10496
2022-09-12T07:38:16.346Z,10567.68
2022-09-12T07:39:16.494Z,9456.64
2022-09-12T07:40:16.626Z,8801.28
2022-09-12T07:41:16.749Z,9011.2
2022-09-12T07:42:16.841Z,9344
2022-09-12T07:43:17.000Z,10649.6
2022-09-12T07:44:17.145Z,11509.76
2022-09-12T07:45:17.247Z,11479.04
2022-09-12T07:46:17.456Z,11151.359
2022-09-12T07:47:17.554Z,11632.64
2022-09-12T07:48:17.655Z,11653.12
2022-09-12T07:49:17.759Z,11335.68
2022-09-12T07:50:17.863Z,9789.439
2022-09-12T07:51:17.961Z,9538.56
2022-09-12T07:52:18.112Z,11673.6
2022-09-12T07:53:18.214Z,11888.64
2022-09-12T07:54:18.318Z,12544
2022-09-12T07:55:18.469Z,13864.96
2022-09-12T07:56:18.571Z,14295.04
2022-09-12T07:57:18.671Z,14202.88
2022-09-12T07:58:18.776Z,14080
2022-09-12T07:59:35.609Z,17643.52
2022-09-12T08:00:19.078Z,19128.32
2022-09-12T08:01:19.254Z,20008.96
2022-09-12T08:02:19.423Z,20520.96
2022-09-12T08:03:19.495Z,20602.88
2022-09-12T08:04:19.591Z,19906.56
2022-09-12T08:05:19.686Z,18575.36
2022-09-12T08:06:19.842Z,19107.84
2022-09-12T08:07:19.984Z,19415.04
2022-09-12T08:08:20.093Z,19486.72
2022-09-12T08:09:20.191Z,19783.68
2022-09-12T08:10:20.348Z,20213.76
2022-09-12T08:11:20.443Z,20746.24
2022-09-12T08:12:20.547Z,21176.32
2022-09-12T08:13:20.674Z,21790.72
2022-09-12T08:14:20.803Z,22855.68
2022-09-12T08:15:20.951Z,22302.72
2022-09-12T08:16:21.054Z,24104.96
2022-09-12T08:17:21.206Z,28098.56
2022-09-12T08:18:21.361Z,28467.2
2022-09-12T08:19:21.519Z,28794.88
2022-09-12T08:20:24.302Z,25436.16
2022-09-12T08:21:21.724Z,27197.44
2022-09-12T08:22:21.820Z,25231.36
2022-09-12T08:23:21.922Z,27975.68
2022-09-12T08:24:22.025Z,26685.44
2022-09-12T08:25:22.180Z,24330.24
2022-09-12T08:26:22.346Z,26460.16
2022-09-12T08:27:22.433Z,21626.88
2022-09-12T08:28:22.528Z,21155.84
2022-09-12T08:29:22.627Z,21585.92
2022-09-12T08:30:22.737Z,22200.32
2022-09-12T08:31:22.830Z,22282.24
2022-09-12T08:32:22.937Z,25845.76
2022-09-12T08:33:23.034Z,24985.6
2022-09-12T08:34:23.188Z,19906.56
2022-09-12T08:35:23.340Z,17838.08
2022-09-12T08:36:23.439Z,17029.12
2022-09-12T08:37:23.542Z,15872
2022-09-12T08:38:23.695Z,15083.52
2022-09-12T08:39:23.847Z,14387.199
2022-09-12T08:40:24.002Z,13721.6
2022-09-12T08:41:24.100Z,13209.6
2022-09-12T08:42:24.262Z,14284.8
2022-09-12T08:43:24.404Z,19671.04
2022-09-12T08:44:24.509Z,13496.319
2022-09-12T08:45:24.609Z,14960.64
2022-09-12T08:46:24.774Z,20572.16
2022-09-12T08:47:24.812Z,22896.64
2022-09-12T08:48:24.962Z,22384.64
2022-09-12T08:49:25.069Z,23183.36
2022-09-12T08:50:25.175Z,23449.6
2022-09-12T08:51:25.277Z,23818.24
2022-09-12T08:52:25.369Z,23818.24
2022-09-12T08:53:25.474Z,23654.4
2022-09-12T08:54:25.571Z,23244.8
2022-09-12T08:55:25.727Z,22753.28
2022-09-12T08:56:29.691Z,22978.56
2022-09-12T08:57:25.979Z,22835.2
2022-09-12T08:58:26.082Z,23736.32
2022-09-12T08:59:26.183Z,24248.32
2022-09-12T09:00:26.282Z,25108.48
2022-09-12T09:01:26.426Z,13291.52
2022-09-12T09:02:26.635Z,26931.2
2022-09-12T09:03:26.690Z,27320.32
2022-09-12T09:04:28.705Z,28119.04
2022-09-12T09:05:26.951Z,16220.159
2022-09-12T09:06:27.050Z,15964.159
2022-09-12T09:07:27.146Z,17469.44
2022-09-12T09:08:27.250Z,29675.52
2022-09-12T09:09:28.338Z,34037.76
2022-09-12T09:10:27.490Z,35799.04
2022-09-12T09:11:27.554Z,38379.52
2022-09-12T09:12:27.659Z,40652.8
2022-09-12T09:13:27.758Z,42639.36
2022-09-12T09:14:27.864Z,39854.08
2022-09-12T09:15:28.029Z,28385.28
2022-09-12T09:16:28.137Z,24514.56
2022-09-12T09:17:28.238Z,30310.4
2022-09-12T09:18:28.324Z,28753.92
2022-09-12T09:19:28.472Z,25989.12
2022-09-12T09:20:28.572Z,19015.68
2022-09-12T09:21:28.671Z,18001.92
2022-09-12T09:22:28.825Z,17213.44
2022-09-12T09:23:28.927Z,15974.399
2022-09-12T09:24:29.028Z,14213.12
2022-09-12T09:25:29.179Z,13291.52
2022-09-12T09:26:29.288Z,12206.08
2022-09-12T09:27:40.296Z,11223.04
2022-09-12T09:28:29.538Z,10496
2022-09-12T09:29:29.641Z,10106.88
2022-09-12T09:30:29.744Z,9922.56
2022-09-12T09:31:29.883Z,9840.64
2022-09-12T09:32:29.944Z,9850.88
2022-09-12T09:33:30.095Z,9820.16
2022-09-12T09:34:30.201Z,9922.56
2022-09-12T09:35:33.173Z,10127.359
2022-09-12T09:36:30.447Z,10275.84
2022-09-12T09:37:30.557Z,10741.76
2022-09-12T09:38:30.709Z,11182.08
2022-09-12T09:39:30.808Z,11868.16
2022-09-12T09:40:30.959Z,12605.439
2022-09-12T09:41:31.072Z,14131.199
2022-09-12T09:42:31.165Z,15124.479
2022-09-12T09:43:31.275Z,15482.88
2022-09-12T09:44:31.371Z,15759.359
2022-09-12T09:45:31.471Z,15902.72
2022-09-12T09:46:31.670Z,15831.04
2022-09-12T09:47:31.668Z,15667.199
2022-09-12T09:48:31.824Z,15329.279
2022-09-12T09:49:32.007Z,15175.68
2022-09-12T09:50:32.128Z,19578.88
2022-09-12T09:51:32.282Z,18534.4
2022-09-12T09:52:32.384Z,36638.72
2022-09-12T09:53:32.529Z,33402.88
2022-09-12T09:54:32.681Z,43417.6
2022-09-12T09:55:32.837Z,29614.08
2022-09-12T09:56:32.940Z,22773.76
2022-09-12T09:57:33.091Z,42721.28
2022-09-12T09:58:33.240Z,45015.04
2022-09-12T09:59:33.348Z,46489.6
2022-09-12T10:00:33.447Z,48046.08
2022-09-12T10:01:33.555Z,50135.04
2022-09-12T10:02:33.669Z,51650.56
2022-09-12T10:03:33.757Z,54272
2022-09-12T10:04:36.005Z,56442.88
2022-09-12T10:05:34.009Z,58408.96
2022-09-12T10:06:34.118Z,25579.52
2022-09-12T10:07:34.205Z,22589.44
2022-09-12T10:08:34.358Z,26931.2
2022-09-12T10:09:34.471Z,49356.8
2022-09-12T10:10:34.616Z,49889.28
2022-09-12T10:11:34.713Z,24268.8
2022-09-12T10:12:34.862Z,23859.2
2022-09-12T10:13:35.127Z,26992.64
2022-09-12T10:14:35.145Z,22446.08
2022-09-12T10:15:35.322Z,19312.64
2022-09-12T10:16:35.432Z,20367.36
2022-09-12T10:17:35.575Z,20572.16
2022-09-12T10:18:35.693Z,21155.84
2022-09-12T10:19:35.827Z,21606.4
2022-09-12T10:20:36.049Z,22446.08
2022-09-12T10:21:36.132Z,23797.76
2022-09-12T10:22:36.283Z,38051.84
2022-09-12T10:23:36.447Z,64348.16
2022-09-12T10:24:36.537Z,61480.96
2022-09-12T10:25:36.650Z,38256.64
2022-09-12T10:26:36.744Z,47636.48
2022-09-12T10:27:36.842Z,46940.16
2022-09-12T10:28:36.944Z,23449.6
2022-09-12T10:29:37.099Z,22773.76
2022-09-12T10:30:37.358Z,23552
2022-09-12T10:31:37.401Z,28835.84
2022-09-12T10:32:37.500Z,42106.88
2022-09-12T10:33:37.659Z,58941.44
2022-09-12T10:34:37.809Z,19476.48
2022-09-12T10:35:37.909Z,17408
2022-09-12T10:36:38.023Z,20817.92
2022-09-12T10:37:38.164Z,30924.8
2022-09-12T10:38:38.265Z,62504.96
2022-09-12T10:39:38.479Z,62627.84
2022-09-12T10:40:38.517Z,62423.04
2022-09-12T10:41:38.672Z,63897.6
2022-09-12T10:42:38.822Z,64798.72
2022-09-12T10:43:38.974Z,65249.28
2022-09-12T10:44:39.073Z,65945.6
2022-09-12T10:45:39.261Z,66437.12
2022-09-12T10:46:39.382Z,67584
2022-09-12T10:47:39.483Z,64471.04
2022-09-12T10:48:39.635Z,64143.36
2022-09-12T10:49:39.794Z,63774.72
2022-09-12T10:50:39.939Z,67829.76
2022-09-12T10:51:40.088Z,66560
2022-09-12T10:52:40.188Z,68976.64
2022-09-12T10:53:40.341Z,69713.92
2022-09-12T10:54:40.494Z,69713.92
2022-09-12T10:55:40.646Z,70410.24
2022-09-12T10:56:40.757Z,70246.4
2022-09-12T10:57:40.897Z,71516.16
2022-09-12T10:58:41.004Z,73072.64
2022-09-12T10:59:41.101Z,73687.04
2022-09-12T11:00:41.203Z,75079.68
2022-09-12T11:01:41.373Z,74588.16
2022-09-12T11:02:41.463Z,75202.56
2022-09-12T11:03:41.656Z,70410.24
2022-09-12T11:04:41.662Z,75694.08
2022-09-12T11:05:41.819Z,78192.64
2022-09-12T11:06:41.920Z,80486.4
2022-09-12T11:07:42.017Z,83271.68
2022-09-12T11:08:42.118Z,84049.92
2022-09-12T11:09:42.219Z,86179.84
2022-09-12T11:10:44.361Z,87080.96
2022-09-12T11:11:42.474Z,87572.48
2022-09-12T11:12:42.624Z,87326.72
2022-09-12T11:13:42.780Z,83599.36
2022-09-12T11:14:42.907Z,84869.12
2022-09-12T11:15:43.055Z,84131.84
2022-09-12T11:16:43.241Z,83353.6
2022-09-12T11:17:43.290Z,81141.76
2022-09-12T11:18:43.446Z,84213.76
2022-09-12T11:19:43.536Z,84213.76
2022-09-12T11:20:43.688Z,81305.6
2022-09-12T11:21:43.797Z,83230.72
2022-09-12T11:22:43.948Z,83394.56
2022-09-12T11:23:44.045Z,71352.32
2022-09-12T11:24:44.146Z,43171.84
2022-09-12T11:25:44.253Z,69017.6
2022-09-12T11:26:44.355Z,86016
2022-09-12T11:27:44.453Z,75202.56
2022-09-12T11:28:47.244Z,58408.96
2022-09-12T11:29:44.873Z,52183.04
2022-09-12T11:30:45.067Z,22732.8
2022-09-12T11:31:45.109Z,20746.24
2022-09-12T11:32:45.260Z,19251.2
2022-09-12T11:33:45.597Z,18350.08
2022-09-12T11:34:45.519Z,22896.64
2022-09-12T11:35:45.613Z,18677.76
2022-09-12T11:36:45.718Z,19435.52
2022-09-12T11:37:45.825Z,21504
2022-09-12T11:38:46.009Z,22507.52
2022-09-12T11:39:46.148Z,21155.84
2022-09-12T11:40:46.235Z,20776.96
2022-09-12T11:41:46.342Z,20408.32
2022-09-12T11:42:46.434Z,21032.96
2022-09-12T11:43:46.738Z,39055.36
2022-09-12T11:44:46.737Z,20377.6
2022-09-12T11:45:46.918Z,21401.6
2022-09-12T11:46:49.882Z,20797.44
2022-09-12T11:47:47.088Z,22958.08
2022-09-12T11:48:47.243Z,62464
2022-09-12T11:49:47.293Z,68730.88
2022-09-12T11:50:47.442Z,73031.68
2022-09-12T11:51:47.554Z,73605.12
2022-09-12T11:52:47.650Z,32993.28
2022-09-12T11:53:47.925Z,43950.08
2022-09-12T11:54:51.460Z,36597.76
2022-09-12T11:55:48.057Z,24084.48
2022-09-12T11:56:48.161Z,22876.16
2022-09-12T11:57:48.313Z,20654.08
2022-09-12T11:58:48.497Z,23449.6
2022-09-12T11:59:48.565Z,22384.64
2022-09-12T12:00:48.667Z,24862.72
2022-09-12T12:01:48.932Z,28692.48
2022-09-12T12:02:48.942Z,25518.08
2022-09-12T12:03:49.088Z,22425.6
2022-09-12T12:04:49.180Z,22282.24
2022-09-12T12:05:49.272Z,58859.52
2022-09-12T12:06:49.374Z,70574.08
2022-09-12T12:07:49.481Z,37109.76
2022-09-12T12:08:49.579Z,33484.8
2022-09-12T12:09:49.730Z,39731.2
2022-09-12T12:10:49.881Z,66969.6
2022-09-12T12:11:49.985Z,78479.36
2022-09-12T12:12:50.085Z,73441.28
2022-09-12T12:13:50.189Z,75120.64
2022-09-12T12:14:50.295Z,75284.48
2022-09-12T12:15:50.435Z,76185.6
2022-09-12T12:16:50.496Z,80322.56
2022-09-12T12:17:50.644Z,80977.92
2022-09-12T12:18:50.740Z,82452.48
2022-09-12T12:19:50.850Z,85606.4
2022-09-12T12:20:50.956Z,84541.44
2022-09-12T12:21:51.053Z,87736.32
2022-09-12T12:22:51.154Z,86835.2
2022-09-12T12:23:51.253Z,84951.04
2022-09-12T12:24:51.357Z,84213.76
2022-09-12T12:25:51.464Z,89374.72
2022-09-12T12:26:51.567Z,84951.04
2022-09-12T12:27:51.667Z,88719.36